Terminal Aerodrome Forecast
Issued by NWS

Home | Current Version | Previous Version | Text Only | Print | Product List | Glossary On
Versions: 1 2 3 4 5 6 7 8 9 10 11 12 13 14
560
FTUS46 KSGX 221120
TAFCRQ
TAF
KCRQ 221120Z 2212/2312 VRB03KT P6SM BKN250
     FM221900 24008KT P6SM SCT250
     FM230000 VRB04KT P6SM SCT250
     FM230600 VRB04KT 5SM BR BKN005=

USA.gov is the U.S. government's official web portal to all federal, state and local government web resources and services.